Time;durP1;ratioP1;P1;durP2;ratioP2;P2;SDS_P1;SDS_P2;PMS_P1;PMS_P2;Temp;Humidity;BMP_temperature;BMP_pressure;BME280_temperature;BME280_humidity;BME280_pressure;Samples;Min_cycle;Max_cycle;Signal;HPM_P1;HPM_P2
2021/07/16 00:00:19;;;;;;;13.03;6.77;;;;;;;16.48;68.29;102246.53;690687;28;1311;-59
2021/07/16 00:00:40;;;;;;;13.20;6.97;;;;;;;16.49;68.47;102248.25;690658;28;1022;-59
2021/07/16 00:01:00;;;;;;;12.27;6.63;;;;;;;16.46;68.41;102253.72;690750;28;864;-59
2021/07/16 00:01:23;;;;;;;11.95;6.65;;;;;;;16.45;68.29;102246.69;690792;28;863;-58
2021/07/16 00:01:44;;;;;;;13.50;6.68;;;;;;;16.45;68.39;102248.44;690807;28;996;-58
2021/07/16 00:02:08;;;;;;;14.27;7.20;;;;;;;16.49;68.24;102247.41;690846;28;828;-59
2021/07/16 00:02:31;;;;;;;13.13;7.20;;;;;;;16.48;68.23;102246.53;690530;28;1246;-58
2021/07/16 00:02:54;;;;;;;12.93;6.68;;;;;;;16.52;67.96;102253.44;690320;28;806;-58
2021/07/16 00:03:14;;;;;;;11.23;6.65;;;;;;;16.50;67.91;102246.47;690670;28;844;-59
2021/07/16 00:03:35;;;;;;;13.50;6.90;;;;;;;16.47;67.72;102249.25;690862;28;993;-59
2021/07/16 00:03:55;;;;;;;13.33;6.77;;;;;;;16.44;67.83;102247.59;690788;28;846;-58
2021/07/16 00:04:15;;;;;;;12.93;7.07;;;;;;;16.47;68.29;102244.78;690745;28;990;-58
2021/07/16 00:04:35;;;;;;;13.23;7.07;;;;;;;16.45;68.16;102241.34;690951;28;841;-59
2021/07/16 00:04:56;;;;;;;11.93;7.50;;;;;;;16.47;68.52;102244.78;690749;28;994;-58
2021/07/16 00:05:17;;;;;;;11.20;6.93;;;;;;;16.44;68.66;102247.59;690736;28;940;-59
2021/07/16 00:05:37;;;;;;;11.77;6.88;;;;;;;16.35;68.97;102248.00;690762;28;1237;-58
2021/07/16 00:05:57;;;;;;;13.30;7.20;;;;;;;16.35;68.64;102251.53;690844;28;845;-59
2021/07/16 00:06:18;;;;;;;12.77;7.17;;;;;;;16.37;68.44;102249.66;690692;28;1010;-59
2021/07/16 00:06:38;;;;;;;11.40;6.82;;;;;;;16.37;68.39;102248.78;690759;28;991;-59
2021/07/16 00:06:59;;;;;;;12.20;6.60;;;;;;;16.36;68.56;102244.41;690647;28;900;-59
2021/07/16 00:07:19;;;;;;;14.60;6.97;;;;;;;16.38;68.50;102248.75;690859;28;927;-59
2021/07/16 00:07:41;;;;;;;16.00;6.90;;;;;;;16.36;68.51;102244.41;690723;28;979;-59
2021/07/16 00:08:07;;;;;;;12.80;6.97;;;;;;;16.36;68.64;102249.72;690677;28;852;-58
2021/07/16 00:08:27;;;;;;;11.00;6.88;;;;;;;16.38;68.26;102246.06;690824;28;896;-58
2021/07/16 00:08:47;;;;;;;11.63;6.88;;;;;;;16.33;68.10;102252.53;690713;28;928;-59
2021/07/16 00:09:08;;;;;;;12.70;6.70;;;;;;;16.35;68.10;102245.34;690682;28;1914;-58
2021/07/16 00:09:28;;;;;;;11.93;6.57;;;;;;;16.35;68.14;102250.66;690770;28;916;-58
2021/07/16 00:09:48;;;;;;;12.23;6.93;;;;;;;16.40;68.04;102253.13;690648;28;1228;-58
2021/07/16 00:10:12;;;;;;;10.77;6.80;;;;;;;16.40;67.85;102253.97;690976;28;1158;-58
2021/07/16 00:10:35;;;;;;;10.45;6.70;;;;;;;16.38;67.90;102253.19;690823;28;949;-58
2021/07/16 00:10:55;;;;;;;12.50;6.78;;;;;;;16.37;68.11;102248.78;690749;28;965;-59
2021/07/16 00:11:16;;;;;;;12.80;6.60;;;;;;;16.34;67.99;102254.25;690830;28;896;-58
2021/07/16 00:11:36;;;;;;;13.38;6.60;;;;;;;16.33;68.03;102253.38;690729;28;765;-59
2021/07/16 00:11:57;;;;;;;12.40;6.57;;;;;;;16.34;67.88;102247.16;690854;28;802;-59
2021/07/16 00:12:21;;;;;;;10.75;6.50;;;;;;;16.34;67.76;102247.16;690821;28;1038;-59
2021/07/16 00:12:45;;;;;;;12.23;6.68;;;;;;;16.35;67.68;102251.53;690270;28;1523;-58
2021/07/16 00:13:06;;;;;;;10.88;6.30;;;;;;;16.31;67.65;102249.94;690757;28;940;-59
2021/07/16 00:13:27;;;;;;;10.85;6.40;;;;;;;16.30;67.17;102247.31;690819;28;965;-58
2021/07/16 00:13:47;;;;;;;10.50;6.55;;;;;;;16.29;67.57;102246.47;690840;28;970;-59
2021/07/16 00:14:07;;;;;;;12.33;6.57;;;;;;;16.31;67.65;102249.06;690835;28;931;-59
2021/07/16 00:14:28;;;;;;;12.80;6.75;;;;;;;16.32;67.33;102246.34;690812;28;908;-58
2021/07/16 00:14:48;;;;;;;10.83;6.40;;;;;;;16.31;67.23;102238.41;690867;28;839;-59
2021/07/16 00:15:11;;;;;;;10.07;6.17;;;;;;;16.32;67.32;102242.81;690723;28;1007;-58
2021/07/16 00:15:31;;;;;;;10.15;6.28;;;;;;;16.34;66.99;102235.63;691174;28;1560;-58
2021/07/16 00:15:52;;;;;;;10.80;6.20;;;;;;;16.31;67.13;102235.75;691204;28;1011;-58
2021/07/16 00:16:12;;;;;;;11.70;6.27;;;;;;;16.29;67.05;102238.50;691174;28;967;-58
2021/07/16 00:16:34;;;;;;;10.77;6.22;;;;;;;16.33;67.29;102236.56;691309;28;909;-58
2021/07/16 00:16:54;;;;;;;11.75;6.45;;;;;;;16.31;66.97;102238.41;691310;28;888;-58
2021/07/16 00:17:14;;;;;;;11.15;6.20;;;;;;;16.30;67.38;102247.31;691178;28;900;-58
2021/07/16 00:17:35;;;;;;;10.67;6.27;;;;;;;16.32;67.12;102234.84;691402;28;781;-58
2021/07/16 00:17:55;;;;;;;12.83;6.33;;;;;;;16.31;67.41;102233.97;691294;28;960;-58
2021/07/16 00:18:15;;;;;;;11.52;6.28;;;;;;;16.32;67.06;102245.47;691212;28;817;-58
2021/07/16 00:18:35;;;;;;;11.20;5.80;;;;;;;16.33;67.27;102239.22;691365;28;852;-57
2021/07/16 00:18:56;;;;;;;11.27;5.90;;;;;;;16.32;67.28;102240.16;691256;28;951;-60
2021/07/16 00:19:17;;;;;;;10.38;5.93;;;;;;;16.30;67.55;102237.53;691177;28;916;-58
2021/07/16 00:19:42;;;;;;;9.73;6.03;;;;;;;16.32;67.36;102243.69;691865;28;1078;-58
2021/07/16 00:20:07;;;;;;;14.18;6.20;;;;;;;16.31;67.50;102241.97;691179;28;1012;-58
2021/07/16 00:20:33;;;;;;;11.70;6.05;;;;;;;16.32;67.59;102229.50;691196;28;972;-58
2021/07/16 00:20:57;;;;;;;10.77;6.35;;;;;;;16.28;67.53;102238.56;691123;28;1035;-58
2021/07/16 00:21:17;;;;;;;11.25;6.10;;;;;;;16.25;67.23;102238.69;691231;28;939;-59
2021/07/16 00:21:38;;;;;;;12.02;6.40;;;;;;;16.25;67.29;102233.38;691355;28;820;-59
2021/07/16 00:21:58;;;;;;;9.73;6.13;;;;;;;16.27;67.52;102243.00;691223;28;788;-59
2021/07/16 00:22:19;;;;;;;9.53;6.23;;;;;;;16.30;67.44;102239.34;691258;28;1050;-58
2021/07/16 00:22:40;;;;;;;11.15;5.97;;;;;;;16.32;67.38;102242.81;690950;28;942;-58
2021/07/16 00:23:00;;;;;;;11.53;6.20;;;;;;;16.32;67.17;102240.16;690985;28;864;-59
2021/07/16 00:23:20;;;;;;;10.82;6.30;;;;;;;16.24;67.46;102243.16;691222;28;1002;-58
2021/07/16 00:23:42;;;;;;;10.83;6.07;;;;;;;16.20;67.36;102240.69;691181;28;922;-59
2021/07/16 00:24:02;;;;;;;11.90;6.38;;;;;;;16.20;67.44;102240.69;691293;28;864;-59
2021/07/16 00:24:23;;;;;;;10.53;5.97;;;;;;;16.22;67.82;102236.16;691320;28;896;-59
2021/07/16 00:24:58;;;;;;;11.43;5.97;;;;;;;16.21;67.62;102237.06;691117;28;1314;-59
2021/07/16 00:25:18;;;;;;;11.25;6.10;;;;;;;16.21;67.72;102242.41;691220;28;967;-59
2021/07/16 00:26:55;;;;;;;11.35;5.88;;;;;;;16.18;67.51;102239.91;691242;28;777;-59
2021/07/16 00:27:17;;;;;;;13.43;6.10;;;;;;;16.23;67.12;102237.88;691207;28;812;-59
2021/07/16 00:27:37;;;;;;;12.52;6.15;;;;;;;16.21;67.38;102242.41;691215;28;911;-59
2021/07/16 00:27:57;;;;;;;10.93;6.20;;;;;;;16.21;67.49;102248.59;691281;28;830;-59
2021/07/16 00:28:18;;;;;;;11.77;6.28;;;;;;;16.19;67.19;102250.47;691180;28;999;-58
2021/07/16 00:28:41;;;;;;;10.63;5.80;;;;;;;16.16;67.62;102247.06;691316;28;931;-58
2021/07/16 00:29:02;;;;;;;11.05;5.70;;;;;;;16.13;68.08;102250.72;691091;28;838;-59
2021/07/16 00:29:24;;;;;;;12.07;6.07;;;;;;;16.16;67.81;102252.38;691005;28;1991;-58
2021/07/16 00:29:45;;;;;;;11.10;6.00;;;;;;;16.20;67.80;102246.00;691320;28;872;-58
2021/07/16 00:30:07;;;;;;;10.30;6.20;;;;;;;16.21;67.85;102247.72;691280;28;856;-59
2021/07/16 00:30:28;;;;;;;9.45;6.22;;;;;;;16.24;67.91;102252.91;691373;28;864;-59
2021/07/16 00:30:50;;;;;;;10.73;6.20;;;;;;;16.23;67.81;102252.06;691244;28;789;-59
2021/07/16 00:31:12;;;;;;;11.40;6.65;;;;;;;16.23;67.63;102246.72;691153;28;935;-59
2021/07/16 00:31:37;;;;;;;12.25;6.40;;;;;;;16.20;67.22;102246.84;691262;28;986;-59
2021/07/16 00:31:57;;;;;;;12.07;6.38;;;;;;;16.21;67.55;102247.72;691326;28;832;-59
2021/07/16 00:32:17;;;;;;;10.83;6.13;;;;;;;16.22;67.43;102246.81;691135;28;1082;-58
2021/07/16 00:32:38;;;;;;;10.80;6.33;;;;;;;16.22;67.26;102238.81;691235;28;990;-59
2021/07/16 00:32:58;;;;;;;9.95;6.45;;;;;;;16.22;66.91;102244.16;690712;28;876;-59
2021/07/16 00:33:19;;;;;;;10.17;6.47;;;;;;;16.17;66.88;102236.34;691182;28;863;-59
2021/07/16 00:33:40;;;;;;;11.43;6.15;;;;;;;16.19;67.19;102244.28;691323;28;935;-58
2021/07/16 00:34:03;;;;;;;11.82;6.25;;;;;;;16.20;66.95;102246.00;691191;28;880;-58
2021/07/16 00:34:23;;;;;;;10.20;5.57;;;;;;;16.24;66.51;102242.28;691280;28;813;-58
2021/07/16 00:34:44;;;;;;;11.43;6.00;;;;;;;16.26;66.64;102240.41;691218;28;855;-58
2021/07/16 00:35:05;;;;;;;10.93;6.00;;;;;;;16.25;66.90;102247.53;691186;28;916;-58
2021/07/16 00:35:26;;;;;;;11.55;5.85;;;;;;;16.24;66.53;102236.94;691278;28;880;-58
2021/07/16 00:35:46;;;;;;;11.80;6.22;;;;;;;16.22;66.79;102239.69;691176;28;1301;-58
2021/07/16 00:36:06;;;;;;;10.17;5.90;;;;;;;16.25;66.58;102238.69;691242;28;1072;-58
2021/07/16 00:36:27;;;;;;;9.75;5.63;;;;;;;16.25;66.76;102239.56;691279;28;860;-58
2021/07/16 00:36:48;;;;;;;11.10;6.00;;;;;;;16.25;66.59;102244.03;691074;28;850;-58
2021/07/16 00:37:11;;;;;;;11.05;6.00;;;;;;;16.28;66.82;102243.88;690761;28;1258;-58
2021/07/16 00:37:33;;;;;;;12.38;6.05;;;;;;;16.24;66.49;102239.59;691263;28;805;-58
2021/07/16 00:37:54;;;;;;;12.18;6.05;;;;;;;16.19;66.38;102247.81;691072;28;1018;-59
2021/07/16 00:38:15;;;;;;;13.18;6.32;;;;;;;16.13;66.76;102232.97;691303;28;813;-58
2021/07/16 00:38:38;;;;;;;13.13;6.27;;;;;;;16.16;67.29;102241.75;691139;28;811;-58
2021/07/16 00:38:58;;;;;;;12.05;6.40;;;;;;;16.16;66.77;102239.09;691169;28;1105;-59
2021/07/16 00:39:19;;;;;;;12.50;6.10;;;;;;;16.19;66.73;102244.28;691134;28;1030;-59
2021/07/16 00:39:39;;;;;;;12.02;6.32;;;;;;;16.21;66.89;102242.41;691211;28;797;-59
2021/07/16 00:40:08;;;;;;;13.27;6.43;;;;;;;16.21;67.00;102234.41;691239;28;910;-59
2021/07/16 00:40:28;;;;;;;13.50;6.40;;;;;;;16.17;66.88;102240.81;691207;28;1015;-59
2021/07/16 00:40:49;;;;;;;11.10;6.23;;;;;;;16.17;67.16;102240.81;691270;28;781;-59
2021/07/16 00:41:09;;;;;;;10.90;6.00;;;;;;;16.13;67.17;102248.91;691278;28;947;-59
2021/07/16 00:41:30;;;;;;;11.10;6.10;;;;;;;16.12;67.06;102247.19;691170;28;859;-59
2021/07/16 00:41:50;;;;;;;13.57;6.40;;;;;;;16.11;67.28;102233.97;691145;28;996;-59
2021/07/16 00:42:10;;;;;;;10.50;6.27;;;;;;;16.10;67.21;102253.50;691247;28;1368;-59
2021/07/16 00:42:31;;;;;;;12.23;6.20;;;;;;;16.07;67.29;102241.22;691308;28;849;-59
2021/07/16 00:42:51;;;;;;;12.67;6.23;;;;;;;16.08;67.25;102247.41;690675;28;990;-59
2021/07/16 00:43:12;;;;;;;11.80;6.20;;;;;;;16.07;67.27;102256.28;691088;28;1657;-59
2021/07/16 00:43:32;;;;;;;12.35;6.10;;;;;;;16.08;67.29;102250.91;691198;28;899;-59
2021/07/16 00:43:52;;;;;;;13.47;6.03;;;;;;;16.10;67.60;102251.72;691245;28;988;-59
2021/07/16 00:44:17;;;;;;;13.48;6.78;;;;;;;16.10;67.14;102246.41;691149;28;1046;-59
2021/07/16 00:44:37;;;;;;;11.24;6.06;;;;;;;16.09;67.39;102243.81;691285;28;910;-59
2021/07/16 00:44:58;;;;;;;11.37;6.00;;;;;;;16.09;67.29;102249.13;691161;28;787;-59
2021/07/16 00:45:18;;;;;;;12.03;6.23;;;;;;;16.09;67.16;102242.00;691172;28;993;-59
2021/07/16 00:45:38;;;;;;;9.55;5.93;;;;;;;16.09;67.46;102252.63;691147;28;1319;-59
2021/07/16 00:45:59;;;;;;;10.87;6.03;;;;;;;16.12;67.40;102249.84;691153;28;1045;-59
2021/07/16 00:46:19;;;;;;;12.27;6.17;;;;;;;16.14;67.30;102253.31;691260;28;862;-59
2021/07/16 00:46:39;;;;;;;14.00;6.33;;;;;;;16.10;67.33;102251.72;691347;28;845;-59
2021/07/16 00:47:00;;;;;;;14.37;6.63;;;;;;;16.11;67.11;102239.28;691183;28;923;-59
2021/07/16 00:47:21;;;;;;;13.02;6.50;;;;;;;16.03;67.01;102252.91;691112;28;1089;-59
2021/07/16 00:47:46;;;;;;;12.73;6.05;;;;;;;15.98;66.95;102252.25;691221;28;852;-59
2021/07/16 00:48:06;;;;;;;12.40;5.90;;;;;;;15.97;66.88;102247.00;691163;28;892;-58
2021/07/16 00:48:29;;;;;;;12.93;6.30;;;;;;;15.96;67.00;102246.09;691277;28;809;-57
2021/07/16 00:48:52;;;;;;;11.95;6.03;;;;;;;15.97;67.13;102250.53;691089;28;897;-58
2021/07/16 00:49:13;;;;;;;12.65;5.90;;;;;;;15.98;67.01;102241.59;691142;28;1910;-59
2021/07/16 00:49:34;;;;;;;12.07;6.00;;;;;;;15.98;66.88;102246.91;691107;28;1007;-60
2021/07/16 00:49:55;;;;;;;14.00;6.05;;;;;;;15.99;66.98;102245.13;691129;28;1231;-59
2021/07/16 00:50:28;;;;;;;13.07;6.07;;;;;;;16.00;67.03;102245.06;691261;28;903;-60
2021/07/16 00:50:52;;;;;;;12.05;6.18;;;;;;;15.99;67.07;102248.66;691205;28;872;-59
2021/07/16 00:51:15;;;;;;;11.48;5.82;;;;;;;15.97;67.11;102250.53;691287;28;934;-58
2021/07/16 00:51:35;;;;;;;12.02;5.65;;;;;;;15.97;67.05;102239.88;691142;28;845;-57
2021/07/16 00:51:56;;;;;;;11.57;5.90;;;;;;;15.99;67.33;102247.78;691283;28;891;-58
2021/07/16 00:52:16;;;;;;;9.77;5.60;;;;;;;15.99;67.13;102248.66;691332;28;844;-58
2021/07/16 00:52:38;;;;;;;10.02;5.57;;;;;;;16.00;67.36;102247.72;691179;28;1034;-57
2021/07/16 00:53:02;;;;;;;11.95;5.78;;;;;;;15.99;67.26;102248.66;691073;28;895;-59
2021/07/16 00:53:23;;;;;;;13.10;5.63;;;;;;;15.98;67.42;102240.75;691218;28;1022;-59
2021/07/16 00:53:43;;;;;;;11.25;5.68;;;;;;;15.97;67.14;102250.53;691155;28;1066;-59
2021/07/16 00:54:03;;;;;;;11.43;5.60;;;;;;;15.93;67.01;102243.56;691380;28;856;-58
2021/07/16 00:54:24;;;;;;;13.37;5.80;;;;;;;15.94;66.81;102242.66;691240;28;931;-58
2021/07/16 00:54:44;;;;;;;13.38;5.80;;;;;;;15.96;66.93;102247.91;691187;28;991;-58
2021/07/16 00:55:06;;;;;;;10.47;5.50;;;;;;;15.96;66.92;102246.09;691251;28;816;-58
2021/07/16 00:55:27;;;;;;;10.98;5.40;;;;;;;15.97;66.82;102245.19;690908;28;1318;-58
2021/07/16 00:55:47;;;;;;;11.07;5.30;;;;;;;15.98;66.30;102246.91;691191;28;862;-58
2021/07/16 00:56:11;;;;;;;11.57;5.68;;;;;;;16.01;66.43;102245.94;691117;28;832;-58
2021/07/16 00:56:35;;;;;;;10.43;5.40;;;;;;;16.02;66.46;102242.34;691258;28;947;-58
2021/07/16 00:56:55;;;;;;;10.38;5.55;;;;;;;15.99;66.36;102243.31;691259;28;828;-58
2021/07/16 00:57:15;;;;;;;10.80;5.60;;;;;;;15.95;66.25;102247.03;691053;28;843;-58
2021/07/16 00:57:36;;;;;;;10.88;5.28;;;;;;;15.98;66.53;102246.91;691233;28;853;-58
2021/07/16 00:57:57;;;;;;;11.03;5.53;;;;;;;15.96;66.56;102242.59;691206;28;927;-58
2021/07/16 00:58:21;;;;;;;10.93;5.47;;;;;;;15.98;66.54;102246.06;691079;28;869;-58
2021/07/16 00:58:41;;;;;;;12.18;5.18;;;;;;;15.98;66.11;102244.25;691226;28;852;-58
2021/07/16 00:59:03;;;;;;;10.98;5.53;;;;;;;15.92;66.60;102247.16;691113;28;875;-59
2021/07/16 00:59:24;;;;;;;10.85;5.68;;;;;;;15.97;66.41;102247.00;691078;28;868;-58
2021/07/16 00:59:45;;;;;;;11.07;5.57;;;;;;;15.94;66.27;102245.31;691244;28;976;-59
2021/07/16 01:00:10;;;;;;;11.75;5.50;;;;;;;15.95;66.36;102248.84;691103;28;854;-58
2021/07/16 01:00:30;;;;;;;9.60;5.32;;;;;;;15.94;66.44;102250.66;691200;28;876;-58
2021/07/16 01:00:50;;;;;;;10.95;5.57;;;;;;;15.94;66.58;102250.66;691214;28;836;-58
2021/07/16 01:01:11;;;;;;;12.83;5.67;;;;;;;15.89;66.46;102247.28;691227;28;947;-59
2021/07/16 01:01:31;;;;;;;13.80;5.60;;;;;;;15.89;66.49;102247.28;690998;28;1245;-59
2021/07/16 01:01:55;;;;;;;12.98;5.47;;;;;;;15.90;66.34;102249.06;691168;28;947;-58
2021/07/16 01:02:16;;;;;;;8.95;5.20;;;;;;;15.93;66.15;102254.22;691087;28;992;-58
2021/07/16 01:02:37;;;;;;;12.77;5.57;;;;;;;15.90;66.31;102249.91;691022;28;1371;-58
2021/07/16 01:02:58;;;;;;;13.05;5.68;;;;;;;15.91;66.32;102248.09;690827;28;856;-58
2021/07/16 01:03:24;;;;;;;13.23;5.32;;;;;;;15.90;66.21;102251.72;691229;28;841;-58
2021/07/16 01:03:45;;;;;;;13.98;5.55;;;;;;;15.92;66.58;102241.84;691088;28;920;-59
2021/07/16 01:04:09;;;;;;;12.00;5.20;;;;;;;15.90;66.70;102249.06;691144;28;920;-58
2021/07/16 01:04:29;;;;;;;12.27;5.18;;;;;;;15.90;66.72;102249.91;691012;28;1018;-60
2021/07/16 01:04:49;;;;;;;13.57;5.17;;;;;;;15.94;66.30;102250.66;691247;28;790;-58
2021/07/16 01:05:13;;;;;;;12.80;5.38;;;;;;;15.95;66.37;102254.16;691135;28;979;-58
2021/07/16 01:05:35;;;;;;;10.77;5.60;;;;;;;15.93;66.65;102256.88;690995;28;1406;-58
2021/07/16 01:06:00;;;;;;;12.48;5.57;;;;;;;15.95;66.57;102252.38;691218;28;877;-58
2021/07/16 01:06:20;;;;;;;11.30;5.28;;;;;;;15.98;66.09;102252.25;691053;28;883;-58
2021/07/16 01:06:43;;;;;;;12.93;5.50;;;;;;;15.98;66.22;102257.56;691011;28;1001;-58
2021/07/16 01:07:05;;;;;;;14.15;5.50;;;;;;;15.97;66.24;102249.66;691282;28;936;-58
2021/07/16 01:07:25;;;;;;;12.32;5.30;;;;;;;15.97;66.47;102253.19;691026;28;969;-58
2021/07/16 01:07:49;;;;;;;10.95;5.43;;;;;;;15.97;66.45;102250.53;691156;28;867;-58
2021/07/16 01:08:18;;;;;;;12.80;5.70;;;;;;;15.97;66.62;102242.53;691120;28;895;-58
2021/07/16 01:08:41;;;;;;;13.63;4.95;;;;;;;15.98;65.71;102246.91;691202;28;862;-58
2021/07/16 01:09:04;;;;;;;13.45;5.15;;;;;;;15.96;65.93;102254.09;691271;28;929;-58
2021/07/16 01:09:24;;;;;;;10.30;5.10;;;;;;;15.99;66.02;102253.09;690978;28;1902;-58
2021/07/16 01:09:46;;;;;;;11.20;5.27;;;;;;;15.97;66.02;102253.19;691225;28;872;-58
2021/07/16 01:10:08;;;;;;;12.55;5.28;;;;;;;15.98;65.89;102252.25;691162;28;843;-59
2021/07/16 01:10:30;;;;;;;13.23;5.68;;;;;;;16.00;66.01;102249.50;691084;28;891;-58
2021/07/16 01:10:51;;;;;;;13.98;5.63;;;;;;;16.00;66.30;102254.81;691156;28;904;-58
2021/07/16 01:11:11;;;;;;;10.73;5.40;;;;;;;16.00;65.99;102254.81;691112;28;821;-59
2021/07/16 01:11:33;;;;;;;11.80;5.20;;;;;;;15.95;66.13;102257.69;691086;28;1014;-58
2021/07/16 01:11:57;;;;;;;11.10;5.10;;;;;;;15.95;65.84;102256.81;691117;28;991;-58
2021/07/16 01:12:19;;;;;;;11.90;5.03;;;;;;;15.89;66.01;102255.28;691224;28;828;-58
2021/07/16 01:12:44;;;;;;;11.63;5.03;;;;;;;15.92;65.90;102251.63;690870;28;1030;-58
2021/07/16 01:13:13;;;;;;;12.32;5.10;;;;;;;15.94;66.04;102250.66;691165;28;852;-58
2021/07/16 01:13:33;;;;;;;11.57;4.95;;;;;;;15.94;66.18;102250.66;691111;28;864;-58
2021/07/16 01:13:54;;;;;;;11.25;5.00;;;;;;;15.95;66.13;102251.50;690975;28;1090;-58
2021/07/16 01:14:17;;;;;;;11.40;5.30;;;;;;;15.92;66.49;102247.16;691143;28;907;-58
2021/07/16 01:14:38;;;;;;;13.30;5.40;;;;;;;15.91;66.56;102253.44;691152;28;821;-58
2021/07/16 01:15:02;;;;;;;13.40;4.93;;;;;;;15.92;66.36;102252.50;691043;28;921;-58
2021/07/16 01:15:30;;;;;;;12.43;5.30;;;;;;;15.92;66.58;102247.16;691009;28;1393;-59
2021/07/16 01:15:51;;;;;;;12.20;5.20;;;;;;;15.88;66.86;102250.91;691036;28;895;-59
2021/07/16 01:16:12;;;;;;;11.80;5.10;;;;;;;15.82;66.55;102245.81;691276;28;885;-59
2021/07/16 01:16:32;;;;;;;10.32;5.18;;;;;;;15.83;66.81;102247.56;691073;28;908;-59
2021/07/16 01:16:52;;;;;;;10.13;5.00;;;;;;;15.83;66.77;102247.56;691102;28;963;-59
2021/07/16 01:17:13;;;;;;;12.40;5.07;;;;;;;15.86;66.74;102252.75;691179;28;1223;-59
2021/07/16 01:17:33;;;;;;;10.93;5.03;;;;;;;15.87;66.65;102246.53;691092;28;808;-59
2021/07/16 01:17:54;;;;;;;10.73;5.30;;;;;;;15.92;66.52;102257.81;691236;28;922;-59
2021/07/16 01:18:14;;;;;;;11.13;5.55;;;;;;;15.94;66.17;102255.97;691241;28;903;-59
2021/07/16 01:18:35;;;;;;;12.00;5.10;;;;;;;15.92;66.34;102252.50;691125;28;1000;-59
2021/07/16 01:18:57;;;;;;;10.70;5.30;;;;;;;15.91;66.57;102250.78;691125;28;975;-59
2021/07/16 01:19:45;;;;;;;10.80;5.28;;;;;;;15.93;66.34;102248.91;691130;28;868;-59
2021/07/16 01:20:11;;;;;;;11.15;4.88;;;;;;;15.94;66.15;102247.97;690948;28;2208;-59
2021/07/16 01:20:32;;;;;;;12.63;4.88;;;;;;;15.92;66.19;102246.31;691004;28;1058;-59
2021/07/16 01:20:55;;;;;;;13.30;5.03;;;;;;;15.89;66.22;102253.47;691177;28;634;-59
2021/07/16 01:21:20;;;;;;;12.75;5.35;;;;;;;15.92;66.45;102251.63;690970;28;943;-59
2021/07/16 01:21:41;;;;;;;11.73;5.18;;;;;;;15.95;66.36;102251.50;691107;28;874;-59
2021/07/16 01:22:03;;;;;;;12.43;5.22;;;;;;;15.94;66.26;102253.31;691104;28;896;-59
2021/07/16 01:22:28;;;;;;;11.35;5.13;;;;;;;15.96;66.06;102247.91;691068;28;1130;-59
2021/07/16 01:22:51;;;;;;;12.02;5.07;;;;;;;15.93;66.49;102248.91;690703;28;947;-59
2021/07/16 01:23:15;;;;;;;12.23;5.13;;;;;;;15.89;66.17;102252.63;691031;28;962;-59
2021/07/16 01:23:35;;;;;;;16.10;5.72;;;;;;;15.92;66.27;102249.84;691068;28;809;-59
2021/07/16 01:23:56;;;;;;;10.73;5.23;;;;;;;15.86;66.71;102252.75;691209;28;919;-59
2021/07/16 01:24:16;;;;;;;11.48;5.25;;;;;;;15.90;66.58;102249.91;690832;28;1385;-58
2021/07/16 01:24:38;;;;;;;11.02;5.13;;;;;;;15.91;66.56;102245.44;691148;28;975;-58
2021/07/16 01:25:00;;;;;;;11.38;4.97;;;;;;;15.94;66.79;102249.78;691028;28;1079;-58
2021/07/16 01:25:27;;;;;;;10.20;4.90;;;;;;;15.92;66.43;102252.50;691159;28;867;-59
2021/07/16 01:25:47;;;;;;;9.30;5.00;;;;;;;15.94;66.65;102255.97;691115;28;935;-59
2021/07/16 01:26:08;;;;;;;10.02;5.10;;;;;;;15.94;66.72;102245.31;691090;28;959;-59
2021/07/16 01:26:30;;;;;;;11.15;5.05;;;;;;;15.93;66.65;102245.38;691215;28;997;-59
2021/07/16 01:26:50;;;;;;;12.63;5.05;;;;;;;15.94;66.65;102247.13;690994;28;958;-59
2021/07/16 01:27:11;;;;;;;13.73;4.97;;;;;;;15.96;66.59;102248.78;691091;28;910;-59
2021/07/16 01:27:39;;;;;;;11.37;4.87;;;;;;;15.99;66.40;102253.09;691010;28;1176;-59
2021/07/16 01:28:01;;;;;;;9.70;5.05;;;;;;;16.01;66.64;102249.44;691080;28;822;-59
2021/07/16 01:28:22;;;;;;;10.40;4.82;;;;;;;16.02;66.53;102248.50;691103;28;941;-59
2021/07/16 01:28:45;;;;;;;12.00;5.07;;;;;;;16.03;66.63;102254.69;691061;28;788;-59
2021/07/16 01:29:05;;;;;;;11.38;5.25;;;;;;;16.00;66.59;102253.06;691095;28;904;-60
2021/07/16 01:29:26;;;;;;;12.97;5.10;;;;;;;16.01;66.56;102254.78;690991;28;1977;-59
2021/07/16 01:29:50;;;;;;;12.50;5.30;;;;;;;15.98;66.74;102259.34;691029;28;908;-59
2021/07/16 01:30:12;;;;;;;12.70;5.15;;;;;;;15.98;66.79;102262.88;691216;28;978;-59
2021/07/16 01:30:33;;;;;;;12.65;4.93;;;;;;;16.01;66.96;102248.59;690896;28;1078;-59
2021/07/16 01:30:54;;;;;;;11.98;4.95;;;;;;;15.98;67.04;102240.75;691185;28;818;-59
2021/07/16 01:31:14;;;;;;;12.07;5.20;;;;;;;15.99;66.88;102248.66;691078;28;987;-59
2021/07/16 01:31:36;;;;;;;10.93;5.57;;;;;;;16.00;66.87;102253.06;690946;28;958;-59
2021/07/16 01:31:56;;;;;;;11.93;5.68;;;;;;;16.02;66.85;102252.97;691132;28;914;-58
2021/07/16 01:32:18;;;;;;;12.07;5.15;;;;;;;16.00;66.87;102254.81;691114;28;936;-58
2021/07/16 01:32:42;;;;;;;14.00;5.45;;;;;;;15.96;67.39;102251.44;690965;28;855;-58
2021/07/16 01:33:06;;;;;;;11.82;5.32;;;;;;;15.92;67.36;102247.16;690992;28;942;-58
2021/07/16 01:33:26;;;;;;;10.25;5.20;;;;;;;15.93;67.39;102251.56;690929;28;888;-58
2021/07/16 01:33:47;;;;;;;10.40;5.07;;;;;;;15.94;67.12;102260.41;691095;28;872;-58
2021/07/16 01:34:10;;;;;;;11.87;4.90;;;;;;;15.96;67.24;102254.09;691243;28;895;-58
2021/07/16 01:34:30;;;;;;;14.13;5.20;;;;;;;15.93;67.32;102248.91;691073;28;922;-57
2021/07/16 01:34:51;;;;;;;11.50;4.83;;;;;;;15.99;67.02;102248.66;691184;28;950;-57
2021/07/16 01:35:12;;;;;;;10.63;4.80;;;;;;;16.00;67.26;102255.72;691061;28;923;-59
2021/07/16 01:35:32;;;;;;;12.23;5.32;;;;;;;16.00;66.72;102252.16;690977;28;1252;-59
2021/07/16 01:35:53;;;;;;;12.38;5.10;;;;;;;16.03;66.71;102254.69;691095;28;878;-59
2021/07/16 01:36:13;;;;;;;12.10;5.03;;;;;;;16.01;66.84;102252.13;691096;28;864;-58
2021/07/16 01:36:33;;;;;;;12.00;5.20;;;;;;;15.96;66.99;102251.44;691092;28;810;-58
2021/07/16 01:36:57;;;;;;;10.97;5.10;;;;;;;15.95;67.54;102249.72;691076;28;867;-58
2021/07/16 01:37:17;;;;;;;12.32;5.18;;;;;;;15.98;67.25;102251.38;691092;28;919;-59
2021/07/16 01:37:38;;;;;;;12.17;5.10;;;;;;;15.97;67.24;102245.19;691010;28;884;-59
2021/07/16 01:38:02;;;;;;;11.80;4.85;;;;;;;15.98;66.98;102246.91;691072;28;880;-59
2021/07/16 01:38:22;;;;;;;13.77;5.30;;;;;;;15.98;67.09;102244.25;691182;28;830;-58
2021/07/16 01:38:42;;;;;;;13.37;5.17;;;;;;;15.98;67.08;102244.25;691008;28;970;-59
2021/07/16 01:39:03;;;;;;;12.17;5.33;;;;;;;16.01;67.03;102253.91;691053;28;876;-59
2021/07/16 01:39:23;;;;;;;11.95;5.00;;;;;;;15.99;67.01;102247.78;691155;28;1094;-58
2021/07/16 01:39:44;;;;;;;11.98;4.95;;;;;;;15.99;67.11;102243.31;690994;28;799;-59
2021/07/16 01:40:06;;;;;;;13.53;5.47;;;;;;;15.98;66.99;102251.38;690958;28;926;-59
2021/07/16 01:40:35;;;;;;;12.73;5.43;;;;;;;15.93;67.35;102243.56;690937;28;861;-59
2021/07/16 01:40:58;;;;;;;13.10;5.50;;;;;;;15.92;67.57;102246.31;690788;28;879;-59
2021/07/16 01:41:19;;;;;;;12.95;5.35;;;;;;;15.88;67.71;102245.56;690952;28;821;-59
2021/07/16 01:41:39;;;;;;;12.63;5.10;;;;;;;15.89;67.58;102242.84;690639;28;1031;-59
2021/07/16 01:42:02;;;;;;;12.75;5.20;;;;;;;15.88;67.63;102245.56;691041;28;947;-59
2021/07/16 01:42:22;;;;;;;12.50;5.20;;;;;;;15.86;67.67;102247.41;691136;28;915;-59
2021/07/16 01:42:48;;;;;;;13.17;5.30;;;;;;;15.86;67.49;102252.75;690709;28;903;-59
2021/07/16 01:43:10;;;;;;;10.13;4.88;;;;;;;15.84;67.82;102251.97;691175;28;939;-59
2021/07/16 01:43:31;;;;;;;11.00;5.03;;;;;;;15.83;67.65;102244.91;691052;28;899;-59
2021/07/16 01:43:51;;;;;;;13.57;5.10;;;;;;;15.85;67.41;102251.03;690955;28;1000;-59
2021/07/16 01:44:11;;;;;;;12.87;5.40;;;;;;;15.84;67.64;102247.50;691230;28;890;-59
2021/07/16 01:44:33;;;;;;;12.80;5.33;;;;;;;15.83;68.14;102250.25;690915;28;968;-58